sensor_id;sensor_type;location;lat;lon;timestamp;temperature;humidity
76996;DHT22;65929;49.062;10.338;2023-05-16T00:00:54;8.00;89.40
76996;DHT22;65929;49.062;10.338;2023-05-16T00:01:57;8.00;89.50
76996;DHT22;65929;49.062;10.338;2023-05-16T00:03:00;8.00;89.50
76996;DHT22;65929;49.062;10.338;2023-05-16T00:04:02;8.00;89.40
76996;DHT22;65929;49.062;10.338;2023-05-16T00:05:04;8.10;89.60
76996;DHT22;65929;49.062;10.338;2023-05-16T00:06:07;8.10;89.60
76996;DHT22;65929;49.062;10.338;2023-05-16T00:07:08;8.10;89.60
76996;DHT22;65929;49.062;10.338;2023-05-16T00:08:09;8.10;89.60
76996;DHT22;65929;49.062;10.338;2023-05-16T00:09:10;8.10;89.60
76996;DHT22;65929;49.062;10.338;2023-05-16T00:10:12;8.10;89.50
76996;DHT22;65929;49.062;10.338;2023-05-16T00:11:13;8.10;89.50
76996;DHT22;65929;49.062;10.338;2023-05-16T00:12:13;8.10;89.50
76996;DHT22;65929;49.062;10.338;2023-05-16T00:13:14;8.10;89.60
76996;DHT22;65929;49.062;10.338;2023-05-16T00:14:17;8.10;89.50
76996;DHT22;65929;49.062;10.338;2023-05-16T00:15:19;8.10;89.30
76996;DHT22;65929;49.062;10.338;2023-05-16T00:16:20;8.10;89.30
76996;DHT22;65929;49.062;10.338;2023-05-16T00:17:21;8.10;89.50
76996;DHT22;65929;49.062;10.338;2023-05-16T00:18:24;8.20;89.60
76996;DHT22;65929;49.062;10.338;2023-05-16T00:19:29;8.20;89.60
76996;DHT22;65929;49.062;10.338;2023-05-16T00:20:30;8.20;89.60
76996;DHT22;65929;49.062;10.338;2023-05-16T00:21:31;8.20;89.60
76996;DHT22;65929;49.062;10.338;2023-05-16T00:22:32;8.20;89.70
76996;DHT22;65929;49.062;10.338;2023-05-16T00:23:33;8.20;89.70
76996;DHT22;65929;49.062;10.338;2023-05-16T00:24:34;8.10;89.70
76996;DHT22;65929;49.062;10.338;2023-05-16T00:25:35;8.10;89.70
76996;DHT22;65929;49.062;10.338;2023-05-16T00:26:37;8.10;89.50
76996;DHT22;65929;49.062;10.338;2023-05-16T00:27:38;8.10;89.40
76996;DHT22;65929;49.062;10.338;2023-05-16T00:28:39;8.10;89.40
76996;DHT22;65929;49.062;10.338;2023-05-16T00:29:40;8.10;89.50
76996;DHT22;65929;49.062;10.338;2023-05-16T00:30:41;8.00;89.50
76996;DHT22;65929;49.062;10.338;2023-05-16T00:31:42;8.00;89.50
76996;DHT22;65929;49.062;10.338;2023-05-16T00:32:43;8.00;89.60
76996;DHT22;65929;49.062;10.338;2023-05-16T00:33:45;8.00;89.60
76996;DHT22;65929;49.062;10.338;2023-05-16T00:34:46;8.00;89.40
76996;DHT22;65929;49.062;10.338;2023-05-16T00:35:47;8.00;89.60
76996;DHT22;65929;49.062;10.338;2023-05-16T00:36:49;7.90;89.60
76996;DHT22;65929;49.062;10.338;2023-05-16T00:37:50;7.90;90.00
76996;DHT22;65929;49.062;10.338;2023-05-16T00:38:54;7.90;90.10
76996;DHT22;65929;49.062;10.338;2023-05-16T00:39:58;7.80;90.40
76996;DHT22;65929;49.062;10.338;2023-05-16T00:40:59;7.80;90.70
76996;DHT22;65929;49.062;10.338;2023-05-16T00:42:00;7.80;91.00
76996;DHT22;65929;49.062;10.338;2023-05-16T00:43:01;7.80;91.30
76996;DHT22;65929;49.062;10.338;2023-05-16T00:44:02;7.80;91.40
76996;DHT22;65929;49.062;10.338;2023-05-16T00:45:04;7.80;91.60
76996;DHT22;65929;49.062;10.338;2023-05-16T00:46:05;7.80;91.70
76996;DHT22;65929;49.062;10.338;2023-05-16T00:47:06;7.70;91.80
76996;DHT22;65929;49.062;10.338;2023-05-16T00:48:08;7.70;92.00
76996;DHT22;65929;49.062;10.338;2023-05-16T00:50:14;7.80;92.00
76996;DHT22;65929;49.062;10.338;2023-05-16T00:51:16;7.80;92.10
76996;DHT22;65929;49.062;10.338;2023-05-16T00:52:17;7.80;92.10
76996;DHT22;65929;49.062;10.338;2023-05-16T00:53:18;7.80;92.10
76996;DHT22;65929;49.062;10.338;2023-05-16T00:54:23;7.80;92.10
76996;DHT22;65929;49.062;10.338;2023-05-16T00:55:26;7.80;92.00
76996;DHT22;65929;49.062;10.338;2023-05-16T00:56:27;7.70;92.00
76996;DHT22;65929;49.062;10.338;2023-05-16T00:57:28;7.80;91.90
76996;DHT22;65929;49.062;10.338;2023-05-16T00:58:30;7.70;91.80
76996;DHT22;65929;49.062;10.338;2023-05-16T00:59:32;7.60;91.70
76996;DHT22;65929;49.062;10.338;2023-05-16T01:00:33;7.60;91.70
76996;DHT22;65929;49.062;10.338;2023-05-16T01:01:35;7.60;91.60
76996;DHT22;65929;49.062;10.338;2023-05-16T01:02:37;7.50;91.40
76996;DHT22;65929;49.062;10.338;2023-05-16T01:03:38;7.50;91.40
76996;DHT22;65929;49.062;10.338;2023-05-16T01:04:39;7.50;91.30
76996;DHT22;65929;49.062;10.338;2023-05-16T01:05:42;7.40;91.30
76996;DHT22;65929;49.062;10.338;2023-05-16T01:06:43;7.40;91.50
76996;DHT22;65929;49.062;10.338;2023-05-16T01:07:44;7.40;91.60
76996;DHT22;65929;49.062;10.338;2023-05-16T01:08:46;7.40;91.80
76996;DHT22;65929;49.062;10.338;2023-05-16T01:09:47;7.30;91.80
76996;DHT22;65929;49.062;10.338;2023-05-16T01:10:52;7.30;91.80
76996;DHT22;65929;49.062;10.338;2023-05-16T01:12:06;7.20;91.80
76996;DHT22;65929;49.062;10.338;2023-05-16T01:13:11;7.20;92.00
76996;DHT22;65929;49.062;10.338;2023-05-16T01:14:21;7.20;92.20
76996;DHT22;65929;49.062;10.338;2023-05-16T01:15:28;7.20;92.40
76996;DHT22;65929;49.062;10.338;2023-05-16T01:16:38;7.20;92.60
76996;DHT22;65929;49.062;10.338;2023-05-16T01:17:50;7.10;92.70
76996;DHT22;65929;49.062;10.338;2023-05-16T01:19:01;7.10;92.60
76996;DHT22;65929;49.062;10.338;2023-05-16T01:20:11;7.00;92.60
76996;DHT22;65929;49.062;10.338;2023-05-16T01:21:26;7.00;92.70
76996;DHT22;65929;49.062;10.338;2023-05-16T01:22:45;7.00;92.90
76996;DHT22;65929;49.062;10.338;2023-05-16T01:23:56;7.00;92.90
76996;DHT22;65929;49.062;10.338;2023-05-16T01:25:01;6.90;93.10
76996;DHT22;65929;49.062;10.338;2023-05-16T01:26:22;6.90;93.20
76996;DHT22;65929;49.062;10.338;2023-05-16T01:27:24;6.90;93.20
76996;DHT22;65929;49.062;10.338;2023-05-16T01:28:26;6.80;93.30
76996;DHT22;65929;49.062;10.338;2023-05-16T01:29:28;6.80;93.40
76996;DHT22;65929;49.062;10.338;2023-05-16T01:30:33;6.80;93.60
76996;DHT22;65929;49.062;10.338;2023-05-16T01:31:35;6.70;93.60
76996;DHT22;65929;49.062;10.338;2023-05-16T01:32:36;6.70;93.70
76996;DHT22;65929;49.062;10.338;2023-05-16T01:33:37;6.70;93.60
76996;DHT22;65929;49.062;10.338;2023-05-16T01:34:37;6.60;93.70
76996;DHT22;65929;49.062;10.338;2023-05-16T01:35:50;6.60;93.70
76996;DHT22;65929;49.062;10.338;2023-05-16T01:37:08;6.60;93.90
76996;DHT22;65929;49.062;10.338;2023-05-16T01:38:13;6.60;94.00
76996;DHT22;65929;49.062;10.338;2023-05-16T01:39:19;6.60;94.10
76996;DHT22;65929;49.062;10.338;2023-05-16T01:40:27;6.60;94.20
76996;DHT22;65929;49.062;10.338;2023-05-16T01:41:38;6.60;94.20
76996;DHT22;65929;49.062;10.338;2023-05-16T01:42:44;6.60;94.20
76996;DHT22;65929;49.062;10.338;2023-05-16T01:43:52;6.60;94.20
76996;DHT22;65929;49.062;10.338;2023-05-16T01:45:03;6.60;94.20
76996;DHT22;65929;49.062;10.338;2023-05-16T01:46:11;6.50;94.20
76996;DHT22;65929;49.062;10.338;2023-05-16T01:47:15;6.50;94.20
76996;DHT22;65929;49.062;10.338;2023-05-16T01:48:21;6.50;94.20
76996;DHT22;65929;49.062;10.338;2023-05-16T01:49:28;6.50;94.20
76996;DHT22;65929;49.062;10.338;2023-05-16T01:50:34;6.50;94.30
76996;DHT22;65929;49.062;10.338;2023-05-16T01:51:38;6.50;94.30
76996;DHT22;65929;49.062;10.338;2023-05-16T01:52:44;6.50;94.40
76996;DHT22;65929;49.062;10.338;2023-05-16T01:53:45;6.50;94.50
76996;DHT22;65929;49.062;10.338;2023-05-16T01:54:50;6.40;94.50
76996;DHT22;65929;49.062;10.338;2023-05-16T01:55:55;6.40;94.40
76996;DHT22;65929;49.062;10.338;2023-05-16T01:56:59;6.40;94.40
76996;DHT22;65929;49.062;10.338;2023-05-16T01:58:02;6.40;94.50
76996;DHT22;65929;49.062;10.338;2023-05-16T01:59:04;6.30;94.50
76996;DHT22;65929;49.062;10.338;2023-05-16T02:00:06;6.30;94.50
76996;DHT22;65929;49.062;10.338;2023-05-16T02:01:08;6.30;94.50
76996;DHT22;65929;49.062;10.338;2023-05-16T02:02:09;6.30;94.50
76996;DHT22;65929;49.062;10.338;2023-05-16T02:03:10;6.30;94.60
76996;DHT22;65929;49.062;10.338;2023-05-16T02:04:11;6.30;94.70
76996;DHT22;65929;49.062;10.338;2023-05-16T02:05:13;6.20;94.70
76996;DHT22;65929;49.062;10.338;2023-05-16T02:06:14;6.20;94.80
76996;DHT22;65929;49.062;10.338;2023-05-16T02:07:15;6.20;94.80
76996;DHT22;65929;49.062;10.338;2023-05-16T02:08:16;6.20;94.80
76996;DHT22;65929;49.062;10.338;2023-05-16T02:09:17;6.20;94.80
76996;DHT22;65929;49.062;10.338;2023-05-16T02:10:18;6.10;94.80
76996;DHT22;65929;49.062;10.338;2023-05-16T02:11:19;6.10;94.80
76996;DHT22;65929;49.062;10.338;2023-05-16T02:12:24;6.10;94.90
76996;DHT22;65929;49.062;10.338;2023-05-16T02:13:25;6.10;94.80
76996;DHT22;65929;49.062;10.338;2023-05-16T02:14:26;6.10;94.90
76996;DHT22;65929;49.062;10.338;2023-05-16T02:15:27;6.00;94.90
76996;DHT22;65929;49.062;10.338;2023-05-16T02:16:29;6.00;95.00
76996;DHT22;65929;49.062;10.338;2023-05-16T02:17:30;6.00;95.10
76996;DHT22;65929;49.062;10.338;2023-05-16T02:18:31;6.00;95.00
76996;DHT22;65929;49.062;10.338;2023-05-16T02:19:32;6.00;95.10
76996;DHT22;65929;49.062;10.338;2023-05-16T02:20:34;6.00;95.10
76996;DHT22;65929;49.062;10.338;2023-05-16T02:21:35;6.00;95.10
76996;DHT22;65929;49.062;10.338;2023-05-16T02:22:36;6.00;95.10
76996;DHT22;65929;49.062;10.338;2023-05-16T02:23:38;6.00;95.20
76996;DHT22;65929;49.062;10.338;2023-05-16T02:24:39;6.00;95.30
76996;DHT22;65929;49.062;10.338;2023-05-16T02:25:40;6.10;95.30
76996;DHT22;65929;49.062;10.338;2023-05-16T02:26:42;6.10;95.50
76996;DHT22;65929;49.062;10.338;2023-05-16T02:27:44;6.10;95.50
76996;DHT22;65929;49.062;10.338;2023-05-16T02:28:45;6.10;95.50
76996;DHT22;65929;49.062;10.338;2023-05-16T02:29:46;6.10;95.50
76996;DHT22;65929;49.062;10.338;2023-05-16T02:30:55;6.10;95.50
76996;DHT22;65929;49.062;10.338;2023-05-16T02:31:57;6.00;95.40
76996;DHT22;65929;49.062;10.338;2023-05-16T02:32:58;6.00;95.30
76996;DHT22;65929;49.062;10.338;2023-05-16T02:33:59;6.00;95.30
76996;DHT22;65929;49.062;10.338;2023-05-16T02:35:00;5.90;95.30
76996;DHT22;65929;49.062;10.338;2023-05-16T02:36:01;5.90;95.30
76996;DHT22;65929;49.062;10.338;2023-05-16T02:37:02;5.90;95.20
76996;DHT22;65929;49.062;10.338;2023-05-16T02:38:03;5.90;95.20
76996;DHT22;65929;49.062;10.338;2023-05-16T02:39:04;5.90;95.20
76996;DHT22;65929;49.062;10.338;2023-05-16T02:40:06;5.80;95.20
76996;DHT22;65929;49.062;10.338;2023-05-16T02:41:07;5.80;95.20
76996;DHT22;65929;49.062;10.338;2023-05-16T02:42:08;5.80;95.20
76996;DHT22;65929;49.062;10.338;2023-05-16T02:43:10;5.80;95.20
76996;DHT22;65929;49.062;10.338;2023-05-16T02:44:11;5.80;95.20
76996;DHT22;65929;49.062;10.338;2023-05-16T02:45:12;5.80;95.20
76996;DHT22;65929;49.062;10.338;2023-05-16T02:46:23;5.80;95.20
76996;DHT22;65929;49.062;10.338;2023-05-16T02:47:24;5.80;95.30
76996;DHT22;65929;49.062;10.338;2023-05-16T02:48:25;5.80;95.40
76996;DHT22;65929;49.062;10.338;2023-05-16T02:49:26;5.80;95.40
76996;DHT22;65929;49.062;10.338;2023-05-16T02:50:27;5.80;95.30
76996;DHT22;65929;49.062;10.338;2023-05-16T02:51:28;5.80;95.30
76996;DHT22;65929;49.062;10.338;2023-05-16T02:52:29;5.80;95.40
76996;DHT22;65929;49.062;10.338;2023-05-16T02:53:30;5.80;95.40
76996;DHT22;65929;49.062;10.338;2023-05-16T02:54:31;5.80;95.30
76996;DHT22;65929;49.062;10.338;2023-05-16T02:55:32;5.80;95.30
76996;DHT22;65929;49.062;10.338;2023-05-16T02:56:33;5.70;95.30
76996;DHT22;65929;49.062;10.338;2023-05-16T02:57:34;5.70;95.30
76996;DHT22;65929;49.062;10.338;2023-05-16T02:58:36;5.70;95.30
76996;DHT22;65929;49.062;10.338;2023-05-16T02:59:37;5.70;95.30
76996;DHT22;65929;49.062;10.338;2023-05-16T03:00:38;5.60;95.30
76996;DHT22;65929;49.062;10.338;2023-05-16T03:01:39;5.60;95.30
76996;DHT22;65929;49.062;10.338;2023-05-16T03:02:40;5.60;95.30
76996;DHT22;65929;49.062;10.338;2023-05-16T03:03:41;5.60;95.40
76996;DHT22;65929;49.062;10.338;2023-05-16T03:04:42;5.60;95.50
76996;DHT22;65929;49.062;10.338;2023-05-16T03:05:43;5.60;95.60
76996;DHT22;65929;49.062;10.338;2023-05-16T03:06:45;5.60;95.70
76996;DHT22;65929;49.062;10.338;2023-05-16T03:07:46;5.60;95.70
76996;DHT22;65929;49.062;10.338;2023-05-16T03:08:47;5.60;95.70
76996;DHT22;65929;49.062;10.338;2023-05-16T03:09:48;5.60;95.80
76996;DHT22;65929;49.062;10.338;2023-05-16T03:10:49;5.60;95.80
76996;DHT22;65929;49.062;10.338;2023-05-16T03:11:50;5.60;95.80
76996;DHT22;65929;49.062;10.338;2023-05-16T03:12:51;5.50;95.80
76996;DHT22;65929;49.062;10.338;2023-05-16T03:13:54;5.50;95.80
76996;DHT22;65929;49.062;10.338;2023-05-16T03:14:55;5.50;95.90
76996;DHT22;65929;49.062;10.338;2023-05-16T03:15:56;5.60;96.00
76996;DHT22;65929;49.062;10.338;2023-05-16T03:16:57;5.50;95.90
76996;DHT22;65929;49.062;10.338;2023-05-16T03:17:58;5.50;96.00
76996;DHT22;65929;49.062;10.338;2023-05-16T03:18:59;5.50;96.00
76996;DHT22;65929;49.062;10.338;2023-05-16T03:20:00;5.50;96.00
76996;DHT22;65929;49.062;10.338;2023-05-16T03:21:01;5.50;96.00
76996;DHT22;65929;49.062;10.338;2023-05-16T03:22:03;5.50;96.00
76996;DHT22;65929;49.062;10.338;2023-05-16T03:23:04;5.50;96.00
76996;DHT22;65929;49.062;10.338;2023-05-16T03:24:08;5.60;96.00
76996;DHT22;65929;49.062;10.338;2023-05-16T03:25:09;5.60;96.00
76996;DHT22;65929;49.062;10.338;2023-05-16T03:26:10;5.60;96.00
76996;DHT22;65929;49.062;10.338;2023-05-16T03:27:11;5.60;96.00
76996;DHT22;65929;49.062;10.338;2023-05-16T03:28:12;5.60;96.00
76996;DHT22;65929;49.062;10.338;2023-05-16T03:29:14;5.60;96.10
76996;DHT22;65929;49.062;10.338;2023-05-16T03:30:16;5.60;96.10
76996;DHT22;65929;49.062;10.338;2023-05-16T03:31:17;5.60;96.10
76996;DHT22;65929;49.062;10.338;2023-05-16T03:32:18;5.60;96.10
76996;DHT22;65929;49.062;10.338;2023-05-16T03:33:19;5.70;96.20
76996;DHT22;65929;49.062;10.338;2023-05-16T03:34:20;5.70;96.20
76996;DHT22;65929;49.062;10.338;2023-05-16T03:35:21;5.70;96.20
76996;DHT22;65929;49.062;10.338;2023-05-16T03:36:22;5.70;96.20
76996;DHT22;65929;49.062;10.338;2023-05-16T03:37:24;5.70;96.20
76996;DHT22;65929;49.062;10.338;2023-05-16T03:38:26;5.80;96.20
76996;DHT22;65929;49.062;10.338;2023-05-16T03:39:27;5.80;96.30
76996;DHT22;65929;49.062;10.338;2023-05-16T03:40:28;5.80;96.30
76996;DHT22;65929;49.062;10.338;2023-05-16T03:41:29;5.90;96.40
76996;DHT22;65929;49.062;10.338;2023-05-16T03:42:30;5.90;96.40
76996;DHT22;65929;49.062;10.338;2023-05-16T03:43:31;5.90;96.40
76996;DHT22;65929;49.062;10.338;2023-05-16T03:44:34;5.90;96.40
76996;DHT22;65929;49.062;10.338;2023-05-16T03:45:35;6.00;96.40
76996;DHT22;65929;49.062;10.338;2023-05-16T03:46:36;6.00;96.50
76996;DHT22;65929;49.062;10.338;2023-05-16T03:47:37;6.00;96.50
76996;DHT22;65929;49.062;10.338;2023-05-16T03:48:38;6.10;96.50
76996;DHT22;65929;49.062;10.338;2023-05-16T03:49:39;6.10;96.50
76996;DHT22;65929;49.062;10.338;2023-05-16T03:50:40;6.10;96.50
76996;DHT22;65929;49.062;10.338;2023-05-16T03:51:41;6.10;96.50
76996;DHT22;65929;49.062;10.338;2023-05-16T03:52:42;6.20;96.50
76996;DHT22;65929;49.062;10.338;2023-05-16T03:53:43;6.20;96.50
76996;DHT22;65929;49.062;10.338;2023-05-16T03:54:44;6.20;96.50
76996;DHT22;65929;49.062;10.338;2023-05-16T03:55:46;6.30;96.40
76996;DHT22;65929;49.062;10.338;2023-05-16T03:56:47;6.30;96.50
76996;DHT22;65929;49.062;10.338;2023-05-16T03:57:48;6.30;96.40
76996;DHT22;65929;49.062;10.338;2023-05-16T03:58:49;6.30;96.40
76996;DHT22;65929;49.062;10.338;2023-05-16T03:59:52;6.40;96.40
76996;DHT22;65929;49.062;10.338;2023-05-16T04:00:53;6.40;96.40
76996;DHT22;65929;49.062;10.338;2023-05-16T04:01:53;6.40;96.40
76996;DHT22;65929;49.062;10.338;2023-05-16T04:02:55;6.50;96.40
76996;DHT22;65929;49.062;10.338;2023-05-16T04:03:56;6.50;96.40
76996;DHT22;65929;49.062;10.338;2023-05-16T04:04:57;6.50;96.30
76996;DHT22;65929;49.062;10.338;2023-05-16T04:05:58;6.60;96.30
76996;DHT22;65929;49.062;10.338;2023-05-16T04:07:00;6.60;96.20
76996;DHT22;65929;49.062;10.338;2023-05-16T04:08:01;6.70;96.20
76996;DHT22;65929;49.062;10.338;2023-05-16T04:09:02;6.70;96.10
76996;DHT22;65929;49.062;10.338;2023-05-16T04:10:03;6.70;96.00
76996;DHT22;65929;49.062;10.338;2023-05-16T04:11:04;6.70;95.90
76996;DHT22;65929;49.062;10.338;2023-05-16T04:12:06;6.80;95.80
76996;DHT22;65929;49.062;10.338;2023-05-16T04:13:07;6.80;95.70
76996;DHT22;65929;49.062;10.338;2023-05-16T04:14:09;6.80;95.60
76996;DHT22;65929;49.062;10.338;2023-05-16T04:15:11;6.80;95.50
76996;DHT22;65929;49.062;10.338;2023-05-16T04:16:12;6.80;95.40
76996;DHT22;65929;49.062;10.338;2023-05-16T04:17:13;6.80;95.30
76996;DHT22;65929;49.062;10.338;2023-05-16T04:18:14;6.90;95.20
76996;DHT22;65929;49.062;10.338;2023-05-16T04:19:15;6.90;95.20
76996;DHT22;65929;49.062;10.338;2023-05-16T04:20:16;6.90;95.20
76996;DHT22;65929;49.062;10.338;2023-05-16T04:21:17;6.90;95.20
76996;DHT22;65929;49.062;10.338;2023-05-16T04:22:20;6.90;95.10
76996;DHT22;65929;49.062;10.338;2023-05-16T04:23:22;7.00;95.10
76996;DHT22;65929;49.062;10.338;2023-05-16T04:24:23;7.00;95.00
76996;DHT22;65929;49.062;10.338;2023-05-16T04:25:26;7.00;94.90
76996;DHT22;65929;49.062;10.338;2023-05-16T04:26:27;7.00;94.80
76996;DHT22;65929;49.062;10.338;2023-05-16T04:27:28;7.00;94.60
76996;DHT22;65929;49.062;10.338;2023-05-16T04:28:30;7.00;94.60
76996;DHT22;65929;49.062;10.338;2023-05-16T04:29:31;7.00;94.50
76996;DHT22;65929;49.062;10.338;2023-05-16T04:30:34;7.00;94.50
76996;DHT22;65929;49.062;10.338;2023-05-16T04:31:35;7.00;94.50
76996;DHT22;65929;49.062;10.338;2023-05-16T04:32:36;7.10;94.50
76996;DHT22;65929;49.062;10.338;2023-05-16T04:33:37;7.10;94.50
76996;DHT22;65929;49.062;10.338;2023-05-16T04:34:38;7.10;94.40
76996;DHT22;65929;49.062;10.338;2023-05-16T04:35:40;7.10;94.40
76996;DHT22;65929;49.062;10.338;2023-05-16T04:36:41;7.20;94.40
76996;DHT22;65929;49.062;10.338;2023-05-16T04:37:42;7.20;94.30
76996;DHT22;65929;49.062;10.338;2023-05-16T04:38:43;7.20;94.20
76996;DHT22;65929;49.062;10.338;2023-05-16T04:39:46;7.20;94.10
76996;DHT22;65929;49.062;10.338;2023-05-16T04:40:47;7.20;94.00
76996;DHT22;65929;49.062;10.338;2023-05-16T04:41:50;7.20;93.90
76996;DHT22;65929;49.062;10.338;2023-05-16T04:42:51;7.30;93.70
76996;DHT22;65929;49.062;10.338;2023-05-16T04:43:54;7.40;93.50
76996;DHT22;65929;49.062;10.338;2023-05-16T04:44:55;7.40;93.40
76996;DHT22;65929;49.062;10.338;2023-05-16T04:45:58;7.40;93.30
76996;DHT22;65929;49.062;10.338;2023-05-16T04:46:59;7.40;93.10
76996;DHT22;65929;49.062;10.338;2023-05-16T04:48:00;7.40;92.90
76996;DHT22;65929;49.062;10.338;2023-05-16T04:49:01;7.40;92.80
76996;DHT22;65929;49.062;10.338;2023-05-16T04:50:02;7.50;92.80
76996;DHT22;65929;49.062;10.338;2023-05-16T04:51:03;7.50;92.70
76996;DHT22;65929;49.062;10.338;2023-05-16T04:52:05;7.50;92.70
76996;DHT22;65929;49.062;10.338;2023-05-16T04:53:07;7.50;92.60
76996;DHT22;65929;49.062;10.338;2023-05-16T04:54:09;7.50;92.50
76996;DHT22;65929;49.062;10.338;2023-05-16T04:55:10;7.60;92.40
76996;DHT22;65929;49.062;10.338;2023-05-16T04:56:11;7.60;92.30
76996;DHT22;65929;49.062;10.338;2023-05-16T04:57:12;7.70;92.20
76996;DHT22;65929;49.062;10.338;2023-05-16T04:58:13;7.80;92.10
76996;DHT22;65929;49.062;10.338;2023-05-16T04:59:14;7.80;92.00
76996;DHT22;65929;49.062;10.338;2023-05-16T05:00:16;7.80;91.70
76996;DHT22;65929;49.062;10.338;2023-05-16T05:01:18;7.80;91.20
76996;DHT22;65929;49.062;10.338;2023-05-16T05:02:19;7.80;90.90
76996;DHT22;65929;49.062;10.338;2023-05-16T05:03:20;7.90;90.80
76996;DHT22;65929;49.062;10.338;2023-05-16T05:04:21;7.90;90.50
76996;DHT22;65929;49.062;10.338;2023-05-16T05:05:22;8.00;90.60
76996;DHT22;65929;49.062;10.338;2023-05-16T05:06:24;8.00;90.40
76996;DHT22;65929;49.062;10.338;2023-05-16T05:07:25;8.00;90.30
76996;DHT22;65929;49.062;10.338;2023-05-16T05:08:28;8.00;90.30
76996;DHT22;65929;49.062;10.338;2023-05-16T05:09:29;8.00;90.30
76996;DHT22;65929;49.062;10.338;2023-05-16T05:10:30;8.00;90.20
76996;DHT22;65929;49.062;10.338;2023-05-16T05:11:31;8.00;90.00
76996;DHT22;65929;49.062;10.338;2023-05-16T05:12:32;8.00;89.90
76996;DHT22;65929;49.062;10.338;2023-05-16T05:13:33;8.00;89.90
76996;DHT22;65929;49.062;10.338;2023-05-16T05:14:34;8.00;89.90
76996;DHT22;65929;49.062;10.338;2023-05-16T05:15:35;8.00;89.90
76996;DHT22;65929;49.062;10.338;2023-05-16T05:16:37;8.00;90.00
76996;DHT22;65929;49.062;10.338;2023-05-16T05:17:38;8.00;90.00
76996;DHT22;65929;49.062;10.338;2023-05-16T05:18:39;8.00;89.90
76996;DHT22;65929;49.062;10.338;2023-05-16T05:19:40;8.00;89.90
76996;DHT22;65929;49.062;10.338;2023-05-16T05:20:41;8.10;90.00
76996;DHT22;65929;49.062;10.338;2023-05-16T05:21:43;8.10;89.90
76996;DHT22;65929;49.062;10.338;2023-05-16T05:22:44;8.10;89.70
76996;DHT22;65929;49.062;10.338;2023-05-16T05:23:45;8.20;89.70
76996;DHT22;65929;49.062;10.338;2023-05-16T05:24:46;8.20;89.80
76996;DHT22;65929;49.062;10.338;2023-05-16T05:25:47;8.20;89.80
76996;DHT22;65929;49.062;10.338;2023-05-16T05:26:48;8.30;89.70
76996;DHT22;65929;49.062;10.338;2023-05-16T05:27:49;8.30;89.60
76996;DHT22;65929;49.062;10.338;2023-05-16T05:28:50;8.30;89.50
76996;DHT22;65929;49.062;10.338;2023-05-16T05:29:51;8.40;89.40
76996;DHT22;65929;49.062;10.338;2023-05-16T05:30:52;8.40;89.40
76996;DHT22;65929;49.062;10.338;2023-05-16T05:31:54;8.50;89.20
76996;DHT22;65929;49.062;10.338;2023-05-16T05:32:55;8.60;89.00
76996;DHT22;65929;49.062;10.338;2023-05-16T05:33:56;8.60;88.80
76996;DHT22;65929;49.062;10.338;2023-05-16T05:34:57;8.60;88.90
76996;DHT22;65929;49.062;10.338;2023-05-16T05:35:58;8.60;88.90
76996;DHT22;65929;49.062;10.338;2023-05-16T05:36:59;8.80;88.90
76996;DHT22;65929;49.062;10.338;2023-05-16T05:38:00;8.90;88.70
76996;DHT22;65929;49.062;10.338;2023-05-16T05:39:01;8.90;88.30
76996;DHT22;65929;49.062;10.338;2023-05-16T05:40:04;9.00;88.10
76996;DHT22;65929;49.062;10.338;2023-05-16T05:41:05;9.10;87.30
76996;DHT22;65929;49.062;10.338;2023-05-16T05:42:06;9.20;87.10
76996;DHT22;65929;49.062;10.338;2023-05-16T05:43:07;9.20;86.90
76996;DHT22;65929;49.062;10.338;2023-05-16T05:44:08;9.30;86.70
76996;DHT22;65929;49.062;10.338;2023-05-16T05:45:10;9.40;86.50
76996;DHT22;65929;49.062;10.338;2023-05-16T05:46:11;9.40;86.20
76996;DHT22;65929;49.062;10.338;2023-05-16T05:47:13;9.50;86.30
76996;DHT22;65929;49.062;10.338;2023-05-16T05:48:14;9.60;85.90
76996;DHT22;65929;49.062;10.338;2023-05-16T05:49:15;9.70;85.90
76996;DHT22;65929;49.062;10.338;2023-05-16T05:50:17;9.80;86.20
76996;DHT22;65929;49.062;10.338;2023-05-16T05:51:18;10.00;86.40
76996;DHT22;65929;49.062;10.338;2023-05-16T05:52:19;10.00;84.70
76996;DHT22;65929;49.062;10.338;2023-05-16T05:53:20;10.10;83.90
76996;DHT22;65929;49.062;10.338;2023-05-16T05:54:22;10.20;83.90
76996;DHT22;65929;49.062;10.338;2023-05-16T05:55:23;10.20;83.70
76996;DHT22;65929;49.062;10.338;2023-05-16T05:56:24;10.30;83.30
76996;DHT22;65929;49.062;10.338;2023-05-16T05:57:26;10.40;82.60
76996;DHT22;65929;49.062;10.338;2023-05-16T05:58:27;10.40;82.90
76996;DHT22;65929;49.062;10.338;2023-05-16T05:59:27;10.50;82.80
76996;DHT22;65929;49.062;10.338;2023-05-16T06:00:29;10.50;82.90
76996;DHT22;65929;49.062;10.338;2023-05-16T06:01:29;10.60;82.70
76996;DHT22;65929;49.062;10.338;2023-05-16T06:02:32;10.70;82.00
76996;DHT22;65929;49.062;10.338;2023-05-16T06:03:33;10.80;82.50
76996;DHT22;65929;49.062;10.338;2023-05-16T06:04:34;10.80;81.50
76996;DHT22;65929;49.062;10.338;2023-05-16T06:05:35;10.80;81.90
76996;DHT22;65929;49.062;10.338;2023-05-16T06:06:36;10.90;81.50
76996;DHT22;65929;49.062;10.338;2023-05-16T06:07:37;10.90;81.70
76996;DHT22;65929;49.062;10.338;2023-05-16T06:08:38;10.90;81.60
76996;DHT22;65929;49.062;10.338;2023-05-16T06:09:39;11.00;81.50
76996;DHT22;65929;49.062;10.338;2023-05-16T06:10:40;11.00;81.50
76996;DHT22;65929;49.062;10.338;2023-05-16T06:11:41;11.10;81.20
76996;DHT22;65929;49.062;10.338;2023-05-16T06:12:45;11.10;81.10
76996;DHT22;65929;49.062;10.338;2023-05-16T06:13:46;11.10;81.60
76996;DHT22;65929;49.062;10.338;2023-05-16T06:14:47;11.10;81.00
76996;DHT22;65929;49.062;10.338;2023-05-16T06:15:49;11.10;81.50
76996;DHT22;65929;49.062;10.338;2023-05-16T06:16:50;11.10;82.00
76996;DHT22;65929;49.062;10.338;2023-05-16T06:17:52;11.20;81.50
76996;DHT22;65929;49.062;10.338;2023-05-16T06:18:53;11.30;81.90
76996;DHT22;65929;49.062;10.338;2023-05-16T06:19:54;11.30;82.20
76996;DHT22;65929;49.062;10.338;2023-05-16T06:20:55;11.40;81.40
76996;DHT22;65929;49.062;10.338;2023-05-16T06:21:56;11.50;81.10
76996;DHT22;65929;49.062;10.338;2023-05-16T06:22:57;11.50;81.50
76996;DHT22;65929;49.062;10.338;2023-05-16T06:23:58;11.50;81.50
76996;DHT22;65929;49.062;10.338;2023-05-16T06:24:59;11.60;81.10
76996;DHT22;65929;49.062;10.338;2023-05-16T06:26:01;11.70;81.20
76996;DHT22;65929;49.062;10.338;2023-05-16T06:27:02;11.70;80.80
76996;DHT22;65929;49.062;10.338;2023-05-16T06:28:06;11.70;79.60
76996;DHT22;65929;49.062;10.338;2023-05-16T06:29:07;11.70;80.40
76996;DHT22;65929;49.062;10.338;2023-05-16T06:30:09;11.70;80.70
76996;DHT22;65929;49.062;10.338;2023-05-16T06:31:10;11.60;81.10
76996;DHT22;65929;49.062;10.338;2023-05-16T06:32:11;11.60;81.20
76996;DHT22;65929;49.062;10.338;2023-05-16T06:33:14;11.60;81.40